createdAt,value
2022-11-20T00:01:36.166Z,19.20
2022-11-20T00:04:03.864Z,19.17
2022-11-20T00:06:33.074Z,20.40
2022-11-20T00:09:02.691Z,19.77
2022-11-20T00:11:32.732Z,20.13
2022-11-20T00:14:03.154Z,19.33
2022-11-20T00:16:41.198Z,19.20
2022-11-20T00:19:08.656Z,19.57
2022-11-20T00:21:37.252Z,19.07
2022-11-20T00:24:04.756Z,19.40
2022-11-20T00:26:32.205Z,20.27
2022-11-20T00:29:02.328Z,19.07
2022-11-20T00:31:31.614Z,19.77
2022-11-20T00:33:59.340Z,19.57
2022-11-20T00:36:28.749Z,20.53
2022-11-20T00:38:58.458Z,19.20
2022-11-20T00:41:29.852Z,19.63
2022-11-20T00:44:00.140Z,18.60
2022-11-20T00:46:29.382Z,19.20
2022-11-20T00:49:02.931Z,18.87
2022-11-20T00:51:37.166Z,20.17
2022-11-20T00:54:07.649Z,19.30
2022-11-20T00:56:35.005Z,19.27
2022-11-20T00:59:05.152Z,19.70
2022-11-20T01:01:33.784Z,19.10
2022-11-20T01:04:05.030Z,19.33
2022-11-20T01:06:35.755Z,19.37
2022-11-20T01:09:11.014Z,19.77
2022-11-20T01:11:40.744Z,20.00
2022-11-20T01:14:11.741Z,18.50
2022-11-20T01:16:44.623Z,18.90
2022-11-20T01:19:18.483Z,19.17
2022-11-20T01:21:48.724Z,19.60
2022-11-20T01:24:18.359Z,19.03
2022-11-20T01:26:48.911Z,20.30
2022-11-20T01:29:22.449Z,19.53
2022-11-20T01:31:50.242Z,19.30
2022-11-20T01:34:19.644Z,18.83
2022-11-20T01:36:48.451Z,19.33
2022-11-20T01:39:26.044Z,19.33
2022-11-20T01:42:13.234Z,19.17
2022-11-20T01:44:57.370Z,19.13
2022-11-20T01:47:40.660Z,18.17
2022-11-20T01:50:19.732Z,18.57
2022-11-20T01:52:52.766Z,18.43
2022-11-20T01:55:28.280Z,20.13
2022-11-20T01:57:56.370Z,19.57
2022-11-20T02:00:23.727Z,18.43
2022-11-20T02:03:00.334Z,18.77
2022-11-20T02:05:41.130Z,18.97
2022-11-20T02:08:08.761Z,18.17
2022-11-20T02:10:37.097Z,18.73
2022-11-20T02:13:24.732Z,18.70
2022-11-20T02:15:53.326Z,19.43
2022-11-20T02:18:22.598Z,19.27
2022-11-20T02:20:54.993Z,18.93
2022-11-20T02:23:29.149Z,19.13
2022-11-20T02:25:58.434Z,19.17
2022-11-20T02:28:28.137Z,18.60
2022-11-20T02:30:55.494Z,19.90
2022-11-20T02:33:22.854Z,19.10
2022-11-20T02:35:50.247Z,20.37
2022-11-20T02:38:17.835Z,21.13
2022-11-20T02:40:45.225Z,20.50
2022-11-20T02:43:12.911Z,20.40
2022-11-20T02:45:41.509Z,21.50
2022-11-20T02:48:09.508Z,20.53
2022-11-20T02:50:41.230Z,20.97
2022-11-20T02:53:09.458Z,20.93
2022-11-20T02:55:38.294Z,20.87
2022-11-20T02:58:06.447Z,21.17
2022-11-20T03:00:34.058Z,20.13
2022-11-20T03:03:01.821Z,21.30
2022-11-20T03:05:29.170Z,20.67
2022-11-20T03:07:56.553Z,21.67
2022-11-20T03:10:23.994Z,20.90
2022-11-20T03:12:57.762Z,22.00
2022-11-20T03:15:25.422Z,21.53
2022-11-20T03:17:56.832Z,21.70
2022-11-20T03:20:24.474Z,22.03
2022-11-20T03:22:54.493Z,20.80
2022-11-20T03:25:22.579Z,21.70
2022-11-20T03:27:49.892Z,22.47
2022-11-20T03:30:17.401Z,22.43
2022-11-20T03:32:45.130Z,21.30
2022-11-20T03:35:13.294Z,21.40
2022-11-20T03:37:41.342Z,21.63
2022-11-20T03:40:10.678Z,20.47
2022-11-20T03:42:49.437Z,22.10
2022-11-20T03:45:19.371Z,21.30
2022-11-20T03:47:47.535Z,20.60
2022-11-20T03:50:15.273Z,21.23
2022-11-20T03:52:42.892Z,20.37
2022-11-20T03:55:11.724Z,21.60
2022-11-20T03:57:40.273Z,21.03
2022-11-20T04:00:08.152Z,21.13
2022-11-20T04:02:35.485Z,20.33
2022-11-20T04:05:02.868Z,21.43
2022-11-20T04:07:30.250Z,20.40
2022-11-20T04:09:57.662Z,21.10
2022-11-20T04:12:25.020Z,21.63
2022-11-20T04:14:52.350Z,21.87
2022-11-20T04:17:19.698Z,21.43
2022-11-20T04:19:47.278Z,21.43
2022-11-20T04:22:14.752Z,21.80
2022-11-20T04:24:42.592Z,21.57
2022-11-20T04:27:10.288Z,22.07
2022-11-20T04:29:37.628Z,21.10
2022-11-20T04:32:05.166Z,23.20
2022-11-20T04:34:32.528Z,21.60
2022-11-20T04:36:59.877Z,21.27
2022-11-20T04:39:27.294Z,21.87
2022-11-20T04:42:14.621Z,21.57
2022-11-20T04:44:42.278Z,22.17
2022-11-20T04:47:11.381Z,21.90
2022-11-20T04:49:38.772Z,21.93
2022-11-20T04:52:07.116Z,21.37
2022-11-20T04:54:34.463Z,21.73
2022-11-20T04:57:01.806Z,22.03
2022-11-20T04:59:30.288Z,22.00
2022-11-20T05:01:58.056Z,21.60
2022-11-20T05:04:25.443Z,21.73
2022-11-20T05:06:52.790Z,22.67
2022-11-20T05:09:20.267Z,21.70
2022-11-20T05:11:51.363Z,21.20
2022-11-20T05:14:19.093Z,21.10
2022-11-20T05:16:47.283Z,22.07
2022-11-20T05:19:14.707Z,21.10
2022-11-20T05:21:42.233Z,22.30
2022-11-20T05:24:09.841Z,22.13
2022-11-20T05:26:37.217Z,21.80
2022-11-20T05:29:04.620Z,21.67
2022-11-20T05:31:31.942Z,21.03
2022-11-20T05:34:00.262Z,21.30
2022-11-20T05:36:29.184Z,23.37
2022-11-20T05:39:01.584Z,23.27
2022-11-20T05:41:30.803Z,24.43
2022-11-20T05:43:59.850Z,23.03
2022-11-20T05:46:29.060Z,21.83
2022-11-20T05:48:58.910Z,22.27
2022-11-20T05:51:28.123Z,22.47
2022-11-20T05:54:00.047Z,22.37
2022-11-20T05:56:28.476Z,22.03
2022-11-20T05:58:56.900Z,21.43
2022-11-20T06:01:26.352Z,22.07
2022-11-20T06:03:54.603Z,23.03
2022-11-20T06:06:23.347Z,21.70
2022-11-20T06:08:50.954Z,21.67
2022-11-20T06:11:19.244Z,22.13
2022-11-20T06:13:47.699Z,21.80
2022-11-20T06:16:18.555Z,22.67
2022-11-20T06:18:46.311Z,22.97
2022-11-20T06:21:19.036Z,23.67
2022-11-20T06:23:47.526Z,23.63
2022-11-20T06:26:20.127Z,23.03
2022-11-20T06:28:48.437Z,23.60
2022-11-20T06:31:18.357Z,23.70
2022-11-20T06:33:46.167Z,24.23
2022-11-20T06:36:15.642Z,24.30
2022-11-20T06:38:43.429Z,24.57
2022-11-20T06:41:22.478Z,24.67
2022-11-20T06:43:50.256Z,23.60
2022-11-20T06:46:21.931Z,25.13
2022-11-20T06:48:51.150Z,24.27
2022-11-20T06:51:18.996Z,24.40
2022-11-20T06:53:46.571Z,23.37
2022-11-20T06:56:14.256Z,24.67
2022-11-20T06:58:41.603Z,24.07
2022-11-20T07:01:12.363Z,24.20
2022-11-20T07:03:40.858Z,24.53
2022-11-20T07:06:09.065Z,23.30
2022-11-20T07:08:36.879Z,23.50
2022-11-20T07:11:07.500Z,24.17
2022-11-20T07:13:35.016Z,23.20
2022-11-20T07:16:08.708Z,23.30
2022-11-20T07:18:39.040Z,23.67
2022-11-20T07:21:08.916Z,24.33
2022-11-20T07:23:39.251Z,24.50
2022-11-20T07:26:11.589Z,24.17
2022-11-20T07:28:39.477Z,23.53
2022-11-20T07:31:08.994Z,24.50
2022-11-20T07:33:39.014Z,23.70
2022-11-20T07:36:08.796Z,23.27
2022-11-20T07:38:38.261Z,25.07
2022-11-20T07:41:05.838Z,23.53
2022-11-20T07:43:39.780Z,25.00
2022-11-20T07:46:09.726Z,25.73
2022-11-20T07:48:38.139Z,24.77
2022-11-20T07:51:05.537Z,24.87
2022-11-20T07:53:34.899Z,25.03
2022-11-20T07:56:03.608Z,24.77
2022-11-20T07:58:34.187Z,25.37
2022-11-20T08:01:08.604Z,25.17
2022-11-20T08:03:39.012Z,24.93
2022-11-20T08:06:06.891Z,24.47
2022-11-20T08:08:38.861Z,24.70
2022-11-20T08:11:29.824Z,25.03
2022-11-20T08:14:12.770Z,26.23
2022-11-20T08:16:49.665Z,24.50
2022-11-20T08:19:19.119Z,26.23
2022-11-20T08:21:46.702Z,24.60
2022-11-20T08:24:14.192Z,25.90
2022-11-20T08:26:42.259Z,25.03
2022-11-20T08:29:09.684Z,25.23
2022-11-20T08:31:37.181Z,24.70
2022-11-20T08:34:09.274Z,25.60
2022-11-20T08:36:37.880Z,24.87
2022-11-20T08:39:05.211Z,25.17
2022-11-20T08:41:38.411Z,24.97
2022-11-20T08:44:08.711Z,24.97
2022-11-20T08:46:41.016Z,25.67
2022-11-20T08:49:10.676Z,25.67
2022-11-20T08:51:41.206Z,30.30
2022-11-20T08:54:11.467Z,33.87
2022-11-20T08:56:41.201Z,30.47
2022-11-20T08:59:51.029Z,30.10
2022-11-20T09:02:00.508Z,26.83
2022-11-20T09:04:27.891Z,25.93
2022-11-20T09:06:55.227Z,26.10
2022-11-20T09:09:22.925Z,26.23
2022-11-20T09:11:51.341Z,26.70
2022-11-20T09:14:18.695Z,26.17
2022-11-20T09:16:47.479Z,23.67
2022-11-20T09:22:04.128Z,25.10
2022-11-20T09:24:31.503Z,25.57
2022-11-20T09:26:58.913Z,23.93
2022-11-20T09:29:26.233Z,25.70
2022-11-20T09:31:53.656Z,25.40
2022-11-20T09:34:20.969Z,25.50
2022-11-20T09:36:48.312Z,25.73
2022-11-20T09:39:16.245Z,25.63
2022-11-20T09:42:00.007Z,25.27
2022-11-20T09:44:27.379Z,26.63
2022-11-20T09:46:58.216Z,25.17
2022-11-20T09:50:11.010Z,26.17
2022-11-20T09:52:47.507Z,25.73
2022-11-20T09:55:16.604Z,24.60
2022-11-20T09:57:49.091Z,25.93
2022-11-20T10:00:21.420Z,24.57
2022-11-20T10:03:34.242Z,25.73
2022-11-20T10:06:06.035Z,25.73
2022-11-20T10:08:40.322Z,27.20
2022-11-20T10:11:33.828Z,27.10
2022-11-20T10:14:27.628Z,27.90
2022-11-20T10:17:09.356Z,26.13
2022-11-20T10:20:13.879Z,29.02
2022-11-20T10:23:06.369Z,28.00
2022-11-20T10:26:24.357Z,26.37
2022-11-20T10:29:06.044Z,26.23
2022-11-20T10:31:46.263Z,26.47
2022-11-20T10:34:22.603Z,26.30
2022-11-20T10:37:04.876Z,26.20
2022-11-20T10:40:40.174Z,26.83
2022-11-20T10:43:22.764Z,27.40
2022-11-20T10:46:05.255Z,26.67
2022-11-20T10:48:33.574Z,26.83
2022-11-20T10:51:23.249Z,26.07
2022-11-20T10:54:18.535Z,26.63
2022-11-20T10:56:51.240Z,25.73
2022-11-20T10:59:57.828Z,25.90
2022-11-20T11:02:33.545Z,26.50
2022-11-20T11:05:14.402Z,26.83
2022-11-20T11:07:43.177Z,28.27
2022-11-20T11:10:25.316Z,26.67
2022-11-20T11:12:54.262Z,26.73
2022-11-20T11:15:42.636Z,26.83
2022-11-20T11:18:12.594Z,28.27
2022-11-20T11:20:40.046Z,27.13
2022-11-20T11:23:42.544Z,26.87
2022-11-20T11:26:24.417Z,27.77
2022-11-20T11:29:03.759Z,27.30
2022-11-20T11:31:35.960Z,27.20
2022-11-20T11:34:13.638Z,27.40
2022-11-20T11:36:42.030Z,27.20
2022-11-20T11:39:17.758Z,25.13
2022-11-20T11:41:46.013Z,27.27
2022-11-20T11:45:04.383Z,27.47
2022-11-20T11:47:38.885Z,25.97
2022-11-20T11:50:22.607Z,26.20
2022-11-20T11:52:53.527Z,25.57
2022-11-20T11:55:44.304Z,26.00
2022-11-20T11:58:24.908Z,24.63
2022-11-20T12:01:30.175Z,25.63
2022-11-20T12:04:20.499Z,25.47
2022-11-20T12:06:52.927Z,24.13
2022-11-20T12:09:25.033Z,23.93
2022-11-20T12:12:18.779Z,24.50
2022-11-20T12:14:51.456Z,25.17
2022-11-20T12:17:19.128Z,25.33
2022-11-20T12:19:46.506Z,25.67
2022-11-20T12:22:32.799Z,25.80
2022-11-20T12:25:17.092Z,23.97
2022-11-20T12:28:12.382Z,24.43
2022-11-20T12:31:04.888Z,26.10
2022-11-20T12:34:25.090Z,26.07
2022-11-20T12:37:08.568Z,24.93
2022-11-20T12:39:44.824Z,25.60
2022-11-20T12:42:52.973Z,25.90
2022-11-20T12:45:56.538Z,25.37
2022-11-20T12:48:51.644Z,25.23
2022-11-20T12:51:56.221Z,26.37
2022-11-20T12:54:54.310Z,27.27
2022-11-20T12:57:43.948Z,25.70
2022-11-20T13:00:16.418Z,24.57
2022-11-20T13:03:27.613Z,24.80
2022-11-20T13:06:16.430Z,25.10
2022-11-20T13:08:56.550Z,24.57
2022-11-20T13:11:49.853Z,22.53
2022-11-20T13:14:40.927Z,23.63
2022-11-20T13:17:08.768Z,21.97
2022-11-20T13:19:36.994Z,22.10
2022-11-20T13:22:06.275Z,23.17
2022-11-20T13:24:34.491Z,23.17
2022-11-20T13:27:10.162Z,22.30
2022-11-20T13:29:47.212Z,22.57
2022-11-20T13:32:19.090Z,21.83
2022-11-20T13:34:55.060Z,19.93
2022-11-20T13:37:27.063Z,19.77
2022-11-20T13:40:06.196Z,19.93
2022-11-20T13:42:40.818Z,20.17
2022-11-20T13:45:33.614Z,21.37
2022-11-20T13:48:20.493Z,22.40
2022-11-20T13:50:59.702Z,23.70
2022-11-20T13:54:17.357Z,25.00
2022-11-20T13:56:54.660Z,24.37
2022-11-20T13:59:42.211Z,24.83
2022-11-20T14:02:19.598Z,24.70
2022-11-20T14:04:51.000Z,23.30
2022-11-20T14:07:21.138Z,23.97
2022-11-20T14:09:58.948Z,23.87
2022-11-20T14:12:34.580Z,24.30
2022-11-20T14:15:05.253Z,24.67
2022-11-20T14:17:34.922Z,24.70
2022-11-20T14:20:14.995Z,24.97
2022-11-20T14:22:52.975Z,23.60
2022-11-20T14:25:28.637Z,24.60
2022-11-20T14:28:04.834Z,24.27
2022-11-20T14:30:40.835Z,24.20
2022-11-20T14:33:13.655Z,24.00
2022-11-20T14:35:51.025Z,24.23
2022-11-20T14:38:23.646Z,25.03
2022-11-20T14:40:52.290Z,24.57
2022-11-20T14:43:22.627Z,25.70
2022-11-20T14:46:10.022Z,26.57
2022-11-20T14:48:38.583Z,24.37
2022-11-20T14:51:12.415Z,26.23
2022-11-20T14:53:41.353Z,24.70
2022-11-20T14:56:10.904Z,25.03
2022-11-20T14:58:40.012Z,25.63
2022-11-20T15:01:12.600Z,25.10
2022-11-20T15:03:41.983Z,24.60
2022-11-20T15:06:13.573Z,24.20
2022-11-20T15:08:52.642Z,25.30
2022-11-20T15:11:27.005Z,25.57
2022-11-20T15:13:54.699Z,25.50
2022-11-20T15:16:25.825Z,25.10
2022-11-20T15:18:53.817Z,25.13
2022-11-20T15:21:22.739Z,25.10
2022-11-20T15:23:51.072Z,25.47
2022-11-20T15:26:27.947Z,26.63
2022-11-20T15:28:56.574Z,25.63
2022-11-20T15:31:25.264Z,25.43
2022-11-20T15:33:53.103Z,26.50
2022-11-20T15:36:22.917Z,25.33
2022-11-20T15:38:51.283Z,25.77
2022-11-20T15:41:19.731Z,25.23
2022-11-20T15:43:49.646Z,25.40
2022-11-20T15:46:28.210Z,25.57
2022-11-20T15:48:58.817Z,25.67
2022-11-20T15:51:31.245Z,27.20
2022-11-20T15:54:00.365Z,26.80
2022-11-20T15:56:28.750Z,26.57
2022-11-20T15:58:56.741Z,27.13
2022-11-20T16:01:25.054Z,29.27
2022-11-20T16:03:52.725Z,28.13
2022-11-20T16:06:20.987Z,28.40
2022-11-20T16:08:49.386Z,28.43
2022-11-20T16:11:19.942Z,30.47
2022-11-20T16:14:07.231Z,30.50
2022-11-20T16:16:38.228Z,30.93
2022-11-20T16:19:07.685Z,35.23
2022-11-20T16:21:40.995Z,30.07
2022-11-20T16:24:14.675Z,31.67
2022-11-20T16:26:44.584Z,30.13
2022-11-20T16:29:17.165Z,29.73
2022-11-20T16:31:49.194Z,30.87
2022-11-20T16:34:18.356Z,29.40
2022-11-20T16:36:47.041Z,30.23
2022-11-20T16:39:22.084Z,29.77
2022-11-20T16:41:51.953Z,32.10
2022-11-20T16:44:22.166Z,28.70
2022-11-20T16:46:52.253Z,29.17
2022-11-20T16:49:26.264Z,28.47
2022-11-20T16:51:54.460Z,26.63
2022-11-20T16:54:22.822Z,25.90
2022-11-20T16:56:55.756Z,24.07
2022-11-20T16:59:24.574Z,23.27
2022-11-20T17:01:53.056Z,23.70
2022-11-20T17:04:22.958Z,24.17
2022-11-20T17:06:52.482Z,23.47
2022-11-20T17:09:20.628Z,21.93
2022-11-20T17:11:55.615Z,21.87
2022-11-20T17:14:23.909Z,22.67
2022-11-20T17:16:52.827Z,21.80
2022-11-20T17:19:24.173Z,21.43
2022-11-20T17:21:52.237Z,22.20
2022-11-20T17:24:20.813Z,23.70
2022-11-20T17:26:51.168Z,22.23
2022-11-20T17:29:25.442Z,21.80
2022-11-20T17:31:57.582Z,22.07
2022-11-20T17:34:27.987Z,23.03
2022-11-20T17:36:59.807Z,22.07
2022-11-20T17:39:28.947Z,24.80
2022-11-20T17:42:18.384Z,24.20
2022-11-20T17:44:47.847Z,22.93
2022-11-20T17:47:17.028Z,23.03
2022-11-20T17:49:45.389Z,22.07
2022-11-20T17:52:14.256Z,21.00
2022-11-20T17:54:43.678Z,21.93
2022-11-20T17:57:30.028Z,23.53
2022-11-20T17:59:58.979Z,23.63
2022-11-20T18:02:34.424Z,25.50
2022-11-20T18:05:05.707Z,25.03
2022-11-20T18:07:41.299Z,25.03
2022-11-20T18:10:10.339Z,25.23
2022-11-20T18:12:41.023Z,24.90
2022-11-20T18:15:10.859Z,25.80
2022-11-20T18:17:42.595Z,25.07
2022-11-20T18:23:00.881Z,24.33
2022-11-20T18:25:31.106Z,23.07
2022-11-20T18:28:00.339Z,23.27
2022-11-20T18:30:30.435Z,22.60
2022-11-20T18:32:58.932Z,23.13
2022-11-20T18:35:30.261Z,22.00
2022-11-20T18:37:59.627Z,23.17
2022-11-20T18:40:30.455Z,22.00
2022-11-20T18:43:21.066Z,22.87
2022-11-20T18:45:50.075Z,23.87
2022-11-20T18:48:18.200Z,23.03
2022-11-20T18:50:46.832Z,22.30
2022-11-20T18:53:20.510Z,23.50
2022-11-20T18:55:49.929Z,21.50
2022-11-20T18:58:18.619Z,21.03
2022-11-20T19:00:47.129Z,22.90
2022-11-20T19:03:15.683Z,23.00
2022-11-20T19:05:44.320Z,23.77
2022-11-20T19:08:13.889Z,25.63
2022-11-20T19:10:42.305Z,24.57
2022-11-20T19:13:12.405Z,23.40
2022-11-20T19:15:43.076Z,23.23
2022-11-20T19:18:12.477Z,23.07
2022-11-20T19:20:41.040Z,22.07
2022-11-20T19:23:09.965Z,21.53
2022-11-20T19:25:41.010Z,21.83
2022-11-20T19:28:09.695Z,20.27
2022-11-20T19:30:39.151Z,20.10
2022-11-20T19:33:09.157Z,19.63
2022-11-20T19:35:42.582Z,19.77
2022-11-20T19:38:12.498Z,21.27
2022-11-20T19:40:41.471Z,21.60
2022-11-20T19:43:12.757Z,21.90
2022-11-20T19:45:43.856Z,22.97
2022-11-20T19:48:13.483Z,23.07
2022-11-20T19:50:42.016Z,21.90
2022-11-20T19:53:11.791Z,20.53
2022-11-20T19:55:44.814Z,19.20
2022-11-20T19:58:13.773Z,18.83
2022-11-20T20:00:41.928Z,18.10
2022-11-20T20:03:11.369Z,17.27
2022-11-20T20:05:42.333Z,16.37
2022-11-20T20:08:17.095Z,16.97
2022-11-20T20:10:46.165Z,15.80
2022-11-20T20:13:14.423Z,15.77
2022-11-20T20:15:42.541Z,15.83
2022-11-20T20:18:11.699Z,17.37
2022-11-20T20:20:42.159Z,18.60
2022-11-20T20:23:12.495Z,18.23
2022-11-20T20:25:41.052Z,17.77
2022-11-20T20:28:09.343Z,18.90
2022-11-20T20:30:38.834Z,18.87
2022-11-20T20:33:08.022Z,19.03
2022-11-20T20:35:42.675Z,22.27
2022-11-20T20:38:12.048Z,22.00
2022-11-20T20:40:51.500Z,22.47
2022-11-20T20:43:23.264Z,20.83
2022-11-20T20:45:52.572Z,19.67
2022-11-20T20:48:23.443Z,17.90
2022-11-20T20:51:03.706Z,19.17
2022-11-20T20:53:32.072Z,20.40
2022-11-20T20:56:02.543Z,20.37
2022-11-20T20:58:31.368Z,19.73
2022-11-20T21:01:14.092Z,21.37
2022-11-20T21:03:42.520Z,20.13
2022-11-20T21:06:11.983Z,20.17
2022-11-20T21:08:44.973Z,21.17
2022-11-20T21:11:18.433Z,21.60
2022-11-20T21:13:47.880Z,20.53
2022-11-20T21:16:17.376Z,21.80
2022-11-20T21:18:45.416Z,20.50
2022-11-20T21:21:32.981Z,20.37
2022-11-20T21:24:00.761Z,19.50
2022-11-20T21:26:30.350Z,18.00
2022-11-20T21:28:58.814Z,18.27
2022-11-20T21:31:27.364Z,18.13
2022-11-20T21:33:57.207Z,18.23
2022-11-20T21:36:27.335Z,18.00
2022-11-20T21:38:56.150Z,17.97
2022-11-20T21:41:25.230Z,18.37
2022-11-20T21:46:46.399Z,17.23
2022-11-20T21:49:15.442Z,17.93
2022-11-20T21:51:43.207Z,18.20
2022-11-20T21:54:11.753Z,18.73
2022-11-20T21:56:42.581Z,19.00
2022-11-20T21:59:13.027Z,18.20
2022-11-20T22:01:41.889Z,17.60
2022-11-20T22:04:14.359Z,17.37
2022-11-20T22:06:41.696Z,16.63
2022-11-20T22:09:10.790Z,16.63
2022-11-20T22:11:39.283Z,17.60
2022-11-20T22:14:22.011Z,16.87
2022-11-20T22:16:51.110Z,16.70
2022-11-20T22:19:22.655Z,17.13
2022-11-20T22:21:52.869Z,17.13
2022-11-20T22:24:21.831Z,17.13
2022-11-20T22:26:50.373Z,18.67
2022-11-20T22:29:24.755Z,16.40
2022-11-20T22:31:53.670Z,16.00
2022-11-20T22:34:21.423Z,15.83
2022-11-20T22:36:49.113Z,15.37
2022-11-20T22:39:16.545Z,16.03
2022-11-20T22:41:43.959Z,15.17
2022-11-20T22:44:16.344Z,16.10
2022-11-20T22:46:43.757Z,15.53
2022-11-20T22:49:11.237Z,15.93
2022-11-20T22:51:41.289Z,16.47
2022-11-20T22:54:11.544Z,16.53
2022-11-20T22:56:39.150Z,18.03
2022-11-20T22:59:06.541Z,17.67
2022-11-20T23:01:36.756Z,23.27
2022-11-20T23:04:07.127Z,22.27
2022-11-20T23:06:34.653Z,20.47
2022-11-20T23:09:03.787Z,22.83
2022-11-20T23:11:35.241Z,22.20
2022-11-20T23:14:05.509Z,21.77
2022-11-20T23:16:33.952Z,18.10
2022-11-20T23:19:07.947Z,15.43
2022-11-20T23:21:37.238Z,13.47
2022-11-20T23:24:05.421Z,12.63
2022-11-20T23:26:35.975Z,10.70
2022-11-20T23:29:04.789Z,9.30
2022-11-20T23:31:34.236Z,8.67
2022-11-20T23:34:02.319Z,9.07
2022-11-20T23:36:33.961Z,11.70
2022-11-20T23:39:02.159Z,14.57
2022-11-20T23:41:30.161Z,14.90
2022-11-20T23:43:57.657Z,14.73
2022-11-20T23:46:27.446Z,14.70
2022-11-20T23:48:57.380Z,13.97
2022-11-20T23:51:27.321Z,14.83
2022-11-20T23:54:00.474Z,14.20
2022-11-20T23:56:31.118Z,14.53
2022-11-20T23:58:59.102Z,13.20
